sensor_id;sensor_type;location;lat;lon;timestamp;P1;durP1;ratioP1;P2;durP2;ratioP2
74371;SDS011;62885;51.374;6.170;2022-09-01T00:01:55;4.55;;;1.02;;
74371;SDS011;62885;51.374;6.170;2022-09-01T00:04:22;5.22;;;1.23;;
74371;SDS011;62885;51.374;6.170;2022-09-01T00:06:50;3.50;;;0.82;;
74371;SDS011;62885;51.374;6.170;2022-09-01T00:09:19;3.67;;;0.90;;
74371;SDS011;62885;51.374;6.170;2022-09-01T00:11:47;7.10;;;1.55;;
74371;SDS011;62885;51.374;6.170;2022-09-01T00:14:21;6.05;;;2.30;;
74371;SDS011;62885;51.374;6.170;2022-09-01T00:16:49;1.80;;;0.82;;
74371;SDS011;62885;51.374;6.170;2022-09-01T00:19:15;2.92;;;1.02;;
74371;SDS011;62885;51.374;6.170;2022-09-01T00:21:41;3.70;;;1.15;;
74371;SDS011;62885;51.374;6.170;2022-09-01T00:24:09;2.30;;;1.10;;
74371;SDS011;62885;51.374;6.170;2022-09-01T00:26:36;2.60;;;1.10;;
74371;SDS011;62885;51.374;6.170;2022-09-01T00:29:02;2.40;;;1.00;;
74371;SDS011;62885;51.374;6.170;2022-09-01T00:31:28;3.17;;;0.90;;
74371;SDS011;62885;51.374;6.170;2022-09-01T00:33:54;1.73;;;1.00;;
74371;SDS011;62885;51.374;6.170;2022-09-01T00:36:20;1.05;;;0.80;;
74371;SDS011;62885;51.374;6.170;2022-09-01T00:38:46;2.45;;;0.82;;
74371;SDS011;62885;51.374;6.170;2022-09-01T00:41:12;5.47;;;0.98;;
74371;SDS011;62885;51.374;6.170;2022-09-01T00:43:40;3.30;;;0.90;;
74371;SDS011;62885;51.374;6.170;2022-09-01T00:46:08;1.40;;;0.88;;
74371;SDS011;62885;51.374;6.170;2022-09-01T00:48:37;1.48;;;0.80;;
74371;SDS011;62885;51.374;6.170;2022-09-01T00:51:03;2.88;;;1.13;;
74371;SDS011;62885;51.374;6.170;2022-09-01T00:53:30;3.42;;;1.00;;
74371;SDS011;62885;51.374;6.170;2022-09-01T00:55:56;3.33;;;1.17;;
74371;SDS011;62885;51.374;6.170;2022-09-01T00:58:21;4.50;;;0.77;;
74371;SDS011;62885;51.374;6.170;2022-09-01T01:00:47;3.20;;;1.13;;
74371;SDS011;62885;51.374;6.170;2022-09-01T01:03:14;5.28;;;1.38;;
74371;SDS011;62885;51.374;6.170;2022-09-01T01:05:42;2.58;;;1.00;;
74371;SDS011;62885;51.374;6.170;2022-09-01T01:08:12;1.67;;;0.95;;
74371;SDS011;62885;51.374;6.170;2022-09-01T01:10:40;1.08;;;0.70;;
74371;SDS011;62885;51.374;6.170;2022-09-01T01:13:08;3.92;;;0.90;;
74371;SDS011;62885;51.374;6.170;2022-09-01T01:15:36;2.72;;;0.98;;
74371;SDS011;62885;51.374;6.170;2022-09-01T01:18:04;1.80;;;1.00;;
74371;SDS011;62885;51.374;6.170;2022-09-01T01:20:30;1.33;;;0.80;;
74371;SDS011;62885;51.374;6.170;2022-09-01T01:23:20;2.53;;;0.90;;
74371;SDS011;62885;51.374;6.170;2022-09-01T01:26:09;1.65;;;0.75;;
74371;SDS011;62885;51.374;6.170;2022-09-01T01:28:37;4.05;;;1.00;;
74371;SDS011;62885;51.374;6.170;2022-09-01T01:33:37;2.92;;;0.88;;
74371;SDS011;62885;51.374;6.170;2022-09-01T01:36:07;2.85;;;1.00;;
74371;SDS011;62885;51.374;6.170;2022-09-01T01:38:38;5.28;;;1.10;;
74371;SDS011;62885;51.374;6.170;2022-09-01T01:41:06;1.65;;;1.10;;
74371;SDS011;62885;51.374;6.170;2022-09-01T01:43:31;2.25;;;0.95;;
74371;SDS011;62885;51.374;6.170;2022-09-01T01:45:57;1.42;;;0.70;;
74371;SDS011;62885;51.374;6.170;2022-09-01T01:48:26;1.15;;;0.70;;
74371;SDS011;62885;51.374;6.170;2022-09-01T01:50:53;2.25;;;1.10;;
74371;SDS011;62885;51.374;6.170;2022-09-01T01:53:19;1.75;;;1.00;;
74371;SDS011;62885;51.374;6.170;2022-09-01T01:55:45;2.97;;;1.20;;
74371;SDS011;62885;51.374;6.170;2022-09-01T01:58:14;3.10;;;0.93;;
74371;SDS011;62885;51.374;6.170;2022-09-01T02:03:11;1.70;;;0.90;;
74371;SDS011;62885;51.374;6.170;2022-09-01T02:05:41;3.63;;;1.25;;
74371;SDS011;62885;51.374;6.170;2022-09-01T02:08:08;1.45;;;0.90;;
74371;SDS011;62885;51.374;6.170;2022-09-01T02:10:39;2.42;;;0.90;;
74371;SDS011;62885;51.374;6.170;2022-09-01T02:13:07;2.63;;;1.10;;
74371;SDS011;62885;51.374;6.170;2022-09-01T02:15:40;1.83;;;0.98;;
74371;SDS011;62885;51.374;6.170;2022-09-01T02:18:21;3.97;;;1.00;;
74371;SDS011;62885;51.374;6.170;2022-09-01T02:20:50;2.55;;;1.05;;
74371;SDS011;62885;51.374;6.170;2022-09-01T02:23:17;1.55;;;0.90;;
74371;SDS011;62885;51.374;6.170;2022-09-01T02:25:47;2.50;;;1.10;;
74371;SDS011;62885;51.374;6.170;2022-09-01T02:28:14;2.90;;;1.02;;
74371;SDS011;62885;51.374;6.170;2022-09-01T02:30:47;1.92;;;1.00;;
74371;SDS011;62885;51.374;6.170;2022-09-01T02:33:15;3.47;;;1.25;;
74371;SDS011;62885;51.374;6.170;2022-09-01T02:35:45;4.32;;;1.33;;
74371;SDS011;62885;51.374;6.170;2022-09-01T02:38:12;3.03;;;1.13;;
74371;SDS011;62885;51.374;6.170;2022-09-01T02:40:39;1.63;;;1.10;;
74371;SDS011;62885;51.374;6.170;2022-09-01T02:45:36;2.35;;;1.10;;
74371;SDS011;62885;51.374;6.170;2022-09-01T02:48:03;5.22;;;1.25;;
74371;SDS011;62885;51.374;6.170;2022-09-01T02:50:33;4.75;;;1.30;;
74371;SDS011;62885;51.374;6.170;2022-09-01T02:52:59;3.28;;;1.13;;
74371;SDS011;62885;51.374;6.170;2022-09-01T02:55:26;5.45;;;1.00;;
74371;SDS011;62885;51.374;6.170;2022-09-01T02:57:52;6.30;;;1.20;;
74371;SDS011;62885;51.374;6.170;2022-09-01T03:00:21;3.00;;;1.10;;
74371;SDS011;62885;51.374;6.170;2022-09-01T03:02:55;3.90;;;1.17;;
74371;SDS011;62885;51.374;6.170;2022-09-01T03:05:24;5.72;;;1.20;;
74371;SDS011;62885;51.374;6.170;2022-09-01T03:07:53;6.03;;;1.13;;
74371;SDS011;62885;51.374;6.170;2022-09-01T03:10:24;2.88;;;1.10;;
74371;SDS011;62885;51.374;6.170;2022-09-01T03:12:55;2.00;;;1.00;;
74371;SDS011;62885;51.374;6.170;2022-09-01T03:15:21;2.72;;;1.17;;
74371;SDS011;62885;51.374;6.170;2022-09-01T03:17:47;2.42;;;1.02;;
74371;SDS011;62885;51.374;6.170;2022-09-01T03:20:13;2.60;;;0.98;;
74371;SDS011;62885;51.374;6.170;2022-09-01T03:22:39;3.40;;;1.27;;
74371;SDS011;62885;51.374;6.170;2022-09-01T03:25:04;1.20;;;0.82;;
74371;SDS011;62885;51.374;6.170;2022-09-01T03:27:30;2.05;;;1.00;;
74371;SDS011;62885;51.374;6.170;2022-09-01T03:29:58;3.17;;;1.13;;
74371;SDS011;62885;51.374;6.170;2022-09-01T03:32:23;3.20;;;1.10;;
74371;SDS011;62885;51.374;6.170;2022-09-01T03:34:49;3.37;;;1.13;;
74371;SDS011;62885;51.374;6.170;2022-09-01T03:37:15;3.17;;;1.30;;
74371;SDS011;62885;51.374;6.170;2022-09-01T03:39:41;5.55;;;1.40;;
74371;SDS011;62885;51.374;6.170;2022-09-01T03:42:07;3.60;;;1.40;;
74371;SDS011;62885;51.374;6.170;2022-09-01T03:44:35;2.92;;;1.23;;
74371;SDS011;62885;51.374;6.170;2022-09-01T03:47:04;3.63;;;1.38;;
74371;SDS011;62885;51.374;6.170;2022-09-01T03:52:00;2.58;;;1.13;;
74371;SDS011;62885;51.374;6.170;2022-09-01T03:54:25;5.47;;;1.60;;
74371;SDS011;62885;51.374;6.170;2022-09-01T03:56:54;2.85;;;1.20;;
74371;SDS011;62885;51.374;6.170;2022-09-01T03:59:22;4.80;;;0.95;;
74371;SDS011;62885;51.374;6.170;2022-09-01T04:01:49;3.28;;;1.20;;
74371;SDS011;62885;51.374;6.170;2022-09-01T04:04:15;2.20;;;1.20;;
74371;SDS011;62885;51.374;6.170;2022-09-01T04:06:41;3.60;;;1.50;;
74371;SDS011;62885;51.374;6.170;2022-09-01T04:09:07;4.95;;;1.77;;
74371;SDS011;62885;51.374;6.170;2022-09-01T04:11:34;2.95;;;1.17;;
74371;SDS011;62885;51.374;6.170;2022-09-01T04:14:03;3.15;;;1.33;;
74371;SDS011;62885;51.374;6.170;2022-09-01T04:16:29;2.42;;;1.20;;
74371;SDS011;62885;51.374;6.170;2022-09-01T04:19:16;4.35;;;1.45;;
74371;SDS011;62885;51.374;6.170;2022-09-01T04:21:44;3.85;;;1.60;;
74371;SDS011;62885;51.374;6.170;2022-09-01T04:24:10;5.47;;;1.30;;
74371;SDS011;62885;51.374;6.170;2022-09-01T04:26:39;4.63;;;1.52;;
74371;SDS011;62885;51.374;6.170;2022-09-01T04:29:05;4.63;;;1.60;;
74371;SDS011;62885;51.374;6.170;2022-09-01T04:31:33;3.97;;;1.50;;
74371;SDS011;62885;51.374;6.170;2022-09-01T04:34:01;2.72;;;1.40;;
74371;SDS011;62885;51.374;6.170;2022-09-01T04:36:28;4.38;;;1.30;;
74371;SDS011;62885;51.374;6.170;2022-09-01T04:41:33;3.47;;;1.50;;
74371;SDS011;62885;51.374;6.170;2022-09-01T04:44:01;4.80;;;1.77;;
74371;SDS011;62885;51.374;6.170;2022-09-01T04:46:29;4.82;;;1.73;;
74371;SDS011;62885;51.374;6.170;2022-09-01T04:48:57;3.33;;;1.52;;
74371;SDS011;62885;51.374;6.170;2022-09-01T04:51:24;6.38;;;2.13;;
74371;SDS011;62885;51.374;6.170;2022-09-01T04:53:53;4.72;;;1.70;;
74371;SDS011;62885;51.374;6.170;2022-09-01T04:56:21;3.55;;;1.60;;
74371;SDS011;62885;51.374;6.170;2022-09-01T04:58:48;5.97;;;2.17;;
74371;SDS011;62885;51.374;6.170;2022-09-01T05:01:15;4.88;;;2.00;;
74371;SDS011;62885;51.374;6.170;2022-09-01T05:03:47;7.47;;;2.08;;
74371;SDS011;62885;51.374;6.170;2022-09-01T05:06:20;7.43;;;1.98;;
74371;SDS011;62885;51.374;6.170;2022-09-01T05:08:46;7.50;;;2.33;;
74371;SDS011;62885;51.374;6.170;2022-09-01T05:11:12;9.35;;;2.28;;
74371;SDS011;62885;51.374;6.170;2022-09-01T05:13:44;6.07;;;1.98;;
74371;SDS011;62885;51.374;6.170;2022-09-01T05:16:12;7.15;;;2.10;;
74371;SDS011;62885;51.374;6.170;2022-09-01T05:18:40;6.13;;;2.10;;
74371;SDS011;62885;51.374;6.170;2022-09-01T05:21:12;12.20;;;3.95;;
74371;SDS011;62885;51.374;6.170;2022-09-01T05:23:40;12.88;;;2.00;;
74371;SDS011;62885;51.374;6.170;2022-09-01T05:26:14;7.82;;;2.35;;
74371;SDS011;62885;51.374;6.170;2022-09-01T05:28:45;4.65;;;2.00;;
74371;SDS011;62885;51.374;6.170;2022-09-01T05:31:13;4.80;;;1.90;;
74371;SDS011;62885;51.374;6.170;2022-09-01T05:33:43;5.72;;;1.85;;
74371;SDS011;62885;51.374;6.170;2022-09-01T05:36:13;6.72;;;2.25;;
74371;SDS011;62885;51.374;6.170;2022-09-01T05:38:42;6.22;;;2.00;;
74371;SDS011;62885;51.374;6.170;2022-09-01T05:41:09;5.45;;;1.98;;
74371;SDS011;62885;51.374;6.170;2022-09-01T05:43:39;3.72;;;1.80;;
74371;SDS011;62885;51.374;6.170;2022-09-01T05:46:10;7.32;;;1.90;;
74371;SDS011;62885;51.374;6.170;2022-09-01T05:48:39;6.25;;;2.10;;
74371;SDS011;62885;51.374;6.170;2022-09-01T05:51:05;5.15;;;1.95;;
74371;SDS011;62885;51.374;6.170;2022-09-01T05:53:32;4.10;;;2.10;;
74371;SDS011;62885;51.374;6.170;2022-09-01T05:55:58;6.05;;;2.28;;
74371;SDS011;62885;51.374;6.170;2022-09-01T05:58:25;7.38;;;2.10;;
74371;SDS011;62885;51.374;6.170;2022-09-01T06:00:52;6.25;;;2.10;;
74371;SDS011;62885;51.374;6.170;2022-09-01T06:03:20;4.68;;;1.90;;
74371;SDS011;62885;51.374;6.170;2022-09-01T06:05:46;13.05;;;2.22;;
74371;SDS011;62885;51.374;6.170;2022-09-01T06:10:42;7.13;;;2.35;;
74371;SDS011;62885;51.374;6.170;2022-09-01T06:13:09;9.05;;;2.13;;
74371;SDS011;62885;51.374;6.170;2022-09-01T06:15:40;7.45;;;2.95;;
74371;SDS011;62885;51.374;6.170;2022-09-01T06:18:06;8.43;;;2.25;;
74371;SDS011;62885;51.374;6.170;2022-09-01T06:20:38;9.35;;;2.03;;
74371;SDS011;62885;51.374;6.170;2022-09-01T06:23:06;6.70;;;2.22;;
74371;SDS011;62885;51.374;6.170;2022-09-01T06:25:31;11.82;;;2.30;;
74371;SDS011;62885;51.374;6.170;2022-09-01T06:28:01;13.90;;;2.22;;
74371;SDS011;62885;51.374;6.170;2022-09-01T06:30:28;8.55;;;1.90;;
74371;SDS011;62885;51.374;6.170;2022-09-01T06:32:54;9.10;;;1.90;;
74371;SDS011;62885;51.374;6.170;2022-09-01T06:35:21;8.32;;;2.55;;
74371;SDS011;62885;51.374;6.170;2022-09-01T06:37:53;6.15;;;2.05;;
74371;SDS011;62885;51.374;6.170;2022-09-01T06:40:20;6.75;;;2.22;;
74371;SDS011;62885;51.374;6.170;2022-09-01T06:42:49;16.90;;;2.58;;
74371;SDS011;62885;51.374;6.170;2022-09-01T06:45:17;11.27;;;2.25;;
74371;SDS011;62885;51.374;6.170;2022-09-01T06:47:45;7.43;;;2.28;;
74371;SDS011;62885;51.374;6.170;2022-09-01T06:50:13;5.80;;;1.77;;
74371;SDS011;62885;51.374;6.170;2022-09-01T06:52:40;5.68;;;1.90;;
74371;SDS011;62885;51.374;6.170;2022-09-01T06:55:07;10.32;;;2.20;;
74371;SDS011;62885;51.374;6.170;2022-09-01T06:57:34;9.55;;;2.40;;
74371;SDS011;62885;51.374;6.170;2022-09-01T07:00:03;6.13;;;2.35;;
74371;SDS011;62885;51.374;6.170;2022-09-01T07:02:31;6.47;;;2.20;;
74371;SDS011;62885;51.374;6.170;2022-09-01T07:04:57;8.50;;;2.38;;
74371;SDS011;62885;51.374;6.170;2022-09-01T07:07:23;9.63;;;2.47;;
74371;SDS011;62885;51.374;6.170;2022-09-01T07:09:49;4.97;;;2.25;;
74371;SDS011;62885;51.374;6.170;2022-09-01T07:12:14;7.05;;;1.98;;
74371;SDS011;62885;51.374;6.170;2022-09-01T07:14:44;7.85;;;2.00;;
74371;SDS011;62885;51.374;6.170;2022-09-01T07:17:11;7.47;;;2.20;;
74371;SDS011;62885;51.374;6.170;2022-09-01T07:19:37;5.45;;;1.92;;
74371;SDS011;62885;51.374;6.170;2022-09-01T07:22:03;6.88;;;2.15;;
74371;SDS011;62885;51.374;6.170;2022-09-01T07:24:29;7.90;;;1.98;;
74371;SDS011;62885;51.374;6.170;2022-09-01T07:26:54;6.90;;;1.90;;
74371;SDS011;62885;51.374;6.170;2022-09-01T07:29:20;10.15;;;2.03;;
74371;SDS011;62885;51.374;6.170;2022-09-01T07:31:47;7.20;;;2.17;;
74371;SDS011;62885;51.374;6.170;2022-09-01T07:34:13;10.48;;;2.20;;
74371;SDS011;62885;51.374;6.170;2022-09-01T07:36:41;8.93;;;2.28;;
74371;SDS011;62885;51.374;6.170;2022-09-01T07:39:08;5.53;;;1.67;;
74371;SDS011;62885;51.374;6.170;2022-09-01T07:41:34;7.65;;;1.95;;
74371;SDS011;62885;51.374;6.170;2022-09-01T07:44:00;4.90;;;1.73;;
74371;SDS011;62885;51.374;6.170;2022-09-01T07:46:26;7.53;;;2.05;;
74371;SDS011;62885;51.374;6.170;2022-09-01T07:48:53;8.27;;;2.15;;
74371;SDS011;62885;51.374;6.170;2022-09-01T07:51:20;7.10;;;2.05;;
74371;SDS011;62885;51.374;6.170;2022-09-01T07:53:47;15.30;;;2.53;;
74371;SDS011;62885;51.374;6.170;2022-09-01T07:56:15;7.38;;;2.03;;
74371;SDS011;62885;51.374;6.170;2022-09-01T07:58:43;6.47;;;1.67;;
74371;SDS011;62885;51.374;6.170;2022-09-01T08:01:10;5.80;;;1.90;;
74371;SDS011;62885;51.374;6.170;2022-09-01T08:03:43;5.22;;;1.80;;
74371;SDS011;62885;51.374;6.170;2022-09-01T08:06:11;6.95;;;2.25;;
74371;SDS011;62885;51.374;6.170;2022-09-01T08:08:38;9.35;;;2.10;;
74371;SDS011;62885;51.374;6.170;2022-09-01T08:11:04;3.20;;;1.60;;
74371;SDS011;62885;51.374;6.170;2022-09-01T08:13:32;8.10;;;2.55;;
74371;SDS011;62885;51.374;6.170;2022-09-01T08:15:58;4.28;;;1.90;;
74371;SDS011;62885;51.374;6.170;2022-09-01T08:18:28;5.28;;;1.88;;
74371;SDS011;62885;51.374;6.170;2022-09-01T08:20:53;3.85;;;1.70;;
74371;SDS011;62885;51.374;6.170;2022-09-01T08:23:18;6.60;;;2.08;;
74371;SDS011;62885;51.374;6.170;2022-09-01T08:25:45;8.23;;;2.00;;
74371;SDS011;62885;51.374;6.170;2022-09-01T08:28:13;7.85;;;1.80;;
74371;SDS011;62885;51.374;6.170;2022-09-01T08:30:40;12.75;;;4.90;;
74371;SDS011;62885;51.374;6.170;2022-09-01T08:33:07;7.60;;;2.58;;
74371;SDS011;62885;51.374;6.170;2022-09-01T08:35:39;6.63;;;1.67;;
74371;SDS011;62885;51.374;6.170;2022-09-01T08:38:06;5.18;;;1.52;;
74371;SDS011;62885;51.374;6.170;2022-09-01T08:40:31;7.55;;;1.80;;
74371;SDS011;62885;51.374;6.170;2022-09-01T08:45:50;5.75;;;1.55;;
74371;SDS011;62885;51.374;6.170;2022-09-01T08:48:38;6.53;;;2.10;;
74371;SDS011;62885;51.374;6.170;2022-09-01T08:51:21;5.50;;;2.00;;
74371;SDS011;62885;51.374;6.170;2022-09-01T08:56:23;5.72;;;1.60;;
74371;SDS011;62885;51.374;6.170;2022-09-01T08:58:50;10.20;;;1.60;;
74371;SDS011;62885;51.374;6.170;2022-09-01T09:01:24;8.52;;;1.95;;
74371;SDS011;62885;51.374;6.170;2022-09-01T09:09:52;8.45;;;1.90;;
74371;SDS011;62885;51.374;6.170;2022-09-01T09:20:39;3.40;;;1.00;;
74371;SDS011;62885;51.374;6.170;2022-09-01T09:23:10;3.75;;;1.08;;
74371;SDS011;62885;51.374;6.170;2022-09-01T09:25:44;4.28;;;1.67;;
74371;SDS011;62885;51.374;6.170;2022-09-01T09:28:11;3.47;;;1.30;;
74371;SDS011;62885;51.374;6.170;2022-09-01T09:30:37;5.47;;;1.40;;
74371;SDS011;62885;51.374;6.170;2022-09-01T09:33:03;4.00;;;1.15;;
74371;SDS011;62885;51.374;6.170;2022-09-01T09:43:31;3.40;;;1.13;;
74371;SDS011;62885;51.374;6.170;2022-09-01T09:46:18;2.38;;;0.80;;
74371;SDS011;62885;51.374;6.170;2022-09-01T09:51:40;4.38;;;0.95;;
74371;SDS011;62885;51.374;6.170;2022-09-01T09:54:12;1.88;;;0.88;;
74371;SDS011;62885;51.374;6.170;2022-09-01T09:56:44;7.15;;;0.98;;
74371;SDS011;62885;51.374;6.170;2022-09-01T09:59:21;1.85;;;0.90;;
74371;SDS011;62885;51.374;6.170;2022-09-01T10:01:53;3.10;;;0.77;;
74371;SDS011;62885;51.374;6.170;2022-09-01T10:04:33;12.07;;;1.23;;
74371;SDS011;62885;51.374;6.170;2022-09-01T10:07:04;2.42;;;0.90;;
74371;SDS011;62885;51.374;6.170;2022-09-01T10:09:48;7.45;;;1.35;;
74371;SDS011;62885;51.374;6.170;2022-09-01T10:12:15;2.20;;;1.08;;
74371;SDS011;62885;51.374;6.170;2022-09-01T10:14:41;2.42;;;0.95;;
74371;SDS011;62885;51.374;6.170;2022-09-01T10:17:15;2.95;;;1.10;;
74371;SDS011;62885;51.374;6.170;2022-09-01T10:19:48;2.25;;;1.10;;
74371;SDS011;62885;51.374;6.170;2022-09-01T10:22:18;2.25;;;0.90;;
74371;SDS011;62885;51.374;6.170;2022-09-01T10:24:44;3.20;;;1.00;;
74371;SDS011;62885;51.374;6.170;2022-09-01T10:27:20;2.20;;;1.00;;
74371;SDS011;62885;51.374;6.170;2022-09-01T10:29:53;2.78;;;1.00;;
74371;SDS011;62885;51.374;6.170;2022-09-01T10:32:30;4.35;;;1.20;;
74371;SDS011;62885;51.374;6.170;2022-09-01T10:34:59;3.75;;;1.10;;
74371;SDS011;62885;51.374;6.170;2022-09-01T10:37:26;3.03;;;1.05;;
74371;SDS011;62885;51.374;6.170;2022-09-01T10:43:21;1.73;;;0.93;;
74371;SDS011;62885;51.374;6.170;2022-09-01T10:46:40;2.17;;;0.90;;
74371;SDS011;62885;51.374;6.170;2022-09-01T10:48:54;2.22;;;1.00;;
74371;SDS011;62885;51.374;6.170;2022-09-01T11:04:10;1.98;;;0.95;;
74371;SDS011;62885;51.374;6.170;2022-09-01T11:09:39;2.92;;;0.90;;
74371;SDS011;62885;51.374;6.170;2022-09-01T11:20:24;4.83;;;1.23;;
74371;SDS011;62885;51.374;6.170;2022-09-01T11:23:04;2.92;;;1.02;;
74371;SDS011;62885;51.374;6.170;2022-09-01T11:30:52;1.48;;;0.88;;
74371;SDS011;62885;51.374;6.170;2022-09-01T11:39:01;3.63;;;1.13;;
74371;SDS011;62885;51.374;6.170;2022-09-01T11:41:28;5.88;;;1.30;;
74371;SDS011;62885;51.374;6.170;2022-09-01T11:43:59;2.47;;;0.80;;
74371;SDS011;62885;51.374;6.170;2022-09-01T11:46:27;6.15;;;1.90;;
74371;SDS011;62885;51.374;6.170;2022-09-01T11:48:56;1.13;;;0.88;;
74371;SDS011;62885;51.374;6.170;2022-09-01T11:51:24;1.95;;;0.93;;
74371;SDS011;62885;51.374;6.170;2022-09-01T11:53:50;4.88;;;1.13;;
74371;SDS011;62885;51.374;6.170;2022-09-01T11:56:23;3.15;;;1.20;;
74371;SDS011;62885;51.374;6.170;2022-09-01T11:58:50;2.83;;;1.05;;
74371;SDS011;62885;51.374;6.170;2022-09-01T12:01:37;2.58;;;0.95;;
74371;SDS011;62885;51.374;6.170;2022-09-01T12:04:23;3.03;;;1.20;;
74371;SDS011;62885;51.374;6.170;2022-09-01T12:07:02;2.50;;;1.20;;
74371;SDS011;62885;51.374;6.170;2022-09-01T12:09:31;3.25;;;1.00;;
74371;SDS011;62885;51.374;6.170;2022-09-01T12:11:59;2.95;;;0.93;;
74371;SDS011;62885;51.374;6.170;2022-09-01T12:14:25;3.55;;;1.33;;
74371;SDS011;62885;51.374;6.170;2022-09-01T12:16:58;4.65;;;1.27;;
74371;SDS011;62885;51.374;6.170;2022-09-01T12:21:55;4.18;;;1.20;;
74371;SDS011;62885;51.374;6.170;2022-09-01T12:24:24;4.78;;;1.20;;
74371;SDS011;62885;51.374;6.170;2022-09-01T12:26:50;5.00;;;1.02;;
74371;SDS011;62885;51.374;6.170;2022-09-01T12:29:25;5.47;;;1.20;;
74371;SDS011;62885;51.374;6.170;2022-09-01T12:31:51;2.67;;;0.75;;
74371;SDS011;62885;51.374;6.170;2022-09-01T12:37:20;3.70;;;1.00;;
74371;SDS011;62885;51.374;6.170;2022-09-01T12:39:51;2.97;;;0.88;;
74371;SDS011;62885;51.374;6.170;2022-09-01T12:45:03;3.95;;;0.90;;
74371;SDS011;62885;51.374;6.170;2022-09-01T12:49:57;5.18;;;0.90;;
74371;SDS011;62885;51.374;6.170;2022-09-01T12:52:24;2.88;;;1.10;;
74371;SDS011;62885;51.374;6.170;2022-09-01T12:55:07;5.18;;;1.20;;
74371;SDS011;62885;51.374;6.170;2022-09-01T12:57:48;2.65;;;1.00;;
74371;SDS011;62885;51.374;6.170;2022-09-01T13:02:50;3.13;;;1.17;;
74371;SDS011;62885;51.374;6.170;2022-09-01T13:05:32;2.67;;;1.10;;
74371;SDS011;62885;51.374;6.170;2022-09-01T13:08:02;2.00;;;0.95;;
74371;SDS011;62885;51.374;6.170;2022-09-01T13:10:31;3.75;;;1.33;;
74371;SDS011;62885;51.374;6.170;2022-09-01T13:13:01;3.97;;;1.30;;
74371;SDS011;62885;51.374;6.170;2022-09-01T13:15:28;4.03;;;1.42;;
74371;SDS011;62885;51.374;6.170;2022-09-01T13:17:55;3.15;;;1.02;;
74371;SDS011;62885;51.374;6.170;2022-09-01T13:20:20;5.05;;;1.30;;
74371;SDS011;62885;51.374;6.170;2022-09-01T13:22:45;2.33;;;0.93;;
74371;SDS011;62885;51.374;6.170;2022-09-01T13:25:11;4.13;;;1.30;;
74371;SDS011;62885;51.374;6.170;2022-09-01T13:27:39;3.95;;;1.23;;
74371;SDS011;62885;51.374;6.170;2022-09-01T13:30:08;1.75;;;1.00;;
74371;SDS011;62885;51.374;6.170;2022-09-01T13:32:35;1.98;;;1.05;;
74371;SDS011;62885;51.374;6.170;2022-09-01T13:35:01;4.63;;;1.17;;
74371;SDS011;62885;51.374;6.170;2022-09-01T13:37:26;4.07;;;1.20;;
74371;SDS011;62885;51.374;6.170;2022-09-01T13:39:51;3.78;;;1.30;;
74371;SDS011;62885;51.374;6.170;2022-09-01T13:42:17;1.65;;;0.93;;
74371;SDS011;62885;51.374;6.170;2022-09-01T13:44:43;3.35;;;1.20;;
74371;SDS011;62885;51.374;6.170;2022-09-01T13:47:09;3.47;;;1.27;;
74371;SDS011;62885;51.374;6.170;2022-09-01T13:49:34;2.97;;;1.20;;
74371;SDS011;62885;51.374;6.170;2022-09-01T13:51:59;2.67;;;1.30;;
74371;SDS011;62885;51.374;6.170;2022-09-01T13:54:25;2.47;;;1.20;;
74371;SDS011;62885;51.374;6.170;2022-09-01T13:56:50;4.63;;;1.13;;
74371;SDS011;62885;51.374;6.170;2022-09-01T13:59:16;4.88;;;1.50;;
74371;SDS011;62885;51.374;6.170;2022-09-01T14:01:41;5.60;;;1.10;;
74371;SDS011;62885;51.374;6.170;2022-09-01T14:04:06;7.18;;;1.10;;
74371;SDS011;62885;51.374;6.170;2022-09-01T14:06:37;3.33;;;1.20;;
74371;SDS011;62885;51.374;6.170;2022-09-01T14:09:08;2.78;;;1.17;;
74371;SDS011;62885;51.374;6.170;2022-09-01T14:11:35;2.33;;;0.82;;
74371;SDS011;62885;51.374;6.170;2022-09-01T14:14:01;5.15;;;1.27;;
74371;SDS011;62885;51.374;6.170;2022-09-01T14:16:26;3.85;;;1.42;;
74371;SDS011;62885;51.374;6.170;2022-09-01T14:18:52;8.18;;;1.50;;
74371;SDS011;62885;51.374;6.170;2022-09-01T14:21:17;4.90;;;1.42;;
74371;SDS011;62885;51.374;6.170;2022-09-01T14:23:43;2.33;;;1.25;;
74371;SDS011;62885;51.374;6.170;2022-09-01T14:26:10;3.47;;;1.40;;
74371;SDS011;62885;51.374;6.170;2022-09-01T14:28:38;5.95;;;1.30;;
74371;SDS011;62885;51.374;6.170;2022-09-01T14:31:09;5.68;;;2.53;;
74371;SDS011;62885;51.374;6.170;2022-09-01T14:33:36;5.78;;;1.30;;
74371;SDS011;62885;51.374;6.170;2022-09-01T14:36:02;4.95;;;1.35;;
74371;SDS011;62885;51.374;6.170;2022-09-01T14:38:28;3.03;;;1.33;;
74371;SDS011;62885;51.374;6.170;2022-09-01T14:40:54;4.13;;;1.40;;
74371;SDS011;62885;51.374;6.170;2022-09-01T14:43:19;4.13;;;1.45;;
74371;SDS011;62885;51.374;6.170;2022-09-01T14:45:46;4.97;;;1.55;;
74371;SDS011;62885;51.374;6.170;2022-09-01T14:48:12;6.28;;;1.60;;
74371;SDS011;62885;51.374;6.170;2022-09-01T14:50:43;3.65;;;1.50;;
74371;SDS011;62885;51.374;6.170;2022-09-01T14:53:10;2.45;;;1.23;;
74371;SDS011;62885;51.374;6.170;2022-09-01T14:55:36;2.53;;;1.40;;
74371;SDS011;62885;51.374;6.170;2022-09-01T14:58:01;3.00;;;1.55;;
74371;SDS011;62885;51.374;6.170;2022-09-01T15:00:28;4.63;;;1.50;;
74371;SDS011;62885;51.374;6.170;2022-09-01T15:02:55;3.80;;;1.10;;
74371;SDS011;62885;51.374;6.170;2022-09-01T15:05:22;3.15;;;1.33;;
74371;SDS011;62885;51.374;6.170;2022-09-01T15:07:48;3.58;;;1.35;;
74371;SDS011;62885;51.374;6.170;2022-09-01T15:10:15;5.50;;;1.27;;
74371;SDS011;62885;51.374;6.170;2022-09-01T15:12:43;4.43;;;1.38;;
74371;SDS011;62885;51.374;6.170;2022-09-01T15:15:09;4.95;;;1.35;;
74371;SDS011;62885;51.374;6.170;2022-09-01T15:17:34;5.60;;;1.48;;
74371;SDS011;62885;51.374;6.170;2022-09-01T15:20:00;2.72;;;1.40;;
74371;SDS011;62885;51.374;6.170;2022-09-01T15:22:46;3.42;;;1.20;;
74371;SDS011;62885;51.374;6.170;2022-09-01T15:25:13;4.03;;;1.35;;
74371;SDS011;62885;51.374;6.170;2022-09-01T15:27:39;2.22;;;1.10;;
74371;SDS011;62885;51.374;6.170;2022-09-01T15:30:04;5.60;;;1.33;;
74371;SDS011;62885;51.374;6.170;2022-09-01T15:32:37;3.55;;;1.60;;
74371;SDS011;62885;51.374;6.170;2022-09-01T15:35:02;5.87;;;1.50;;
74371;SDS011;62885;51.374;6.170;2022-09-01T15:37:28;5.28;;;1.40;;
74371;SDS011;62885;51.374;6.170;2022-09-01T15:39:53;3.78;;;1.33;;
74371;SDS011;62885;51.374;6.170;2022-09-01T15:42:19;6.30;;;1.42;;
74371;SDS011;62885;51.374;6.170;2022-09-01T15:44:45;6.75;;;1.65;;
74371;SDS011;62885;51.374;6.170;2022-09-01T15:47:11;2.83;;;1.58;;
74371;SDS011;62885;51.374;6.170;2022-09-01T15:49:36;2.80;;;1.70;;
74371;SDS011;62885;51.374;6.170;2022-09-01T15:52:02;3.85;;;1.30;;
74371;SDS011;62885;51.374;6.170;2022-09-01T15:54:27;3.40;;;1.70;;
74371;SDS011;62885;51.374;6.170;2022-09-01T15:56:53;2.50;;;1.30;;
74371;SDS011;62885;51.374;6.170;2022-09-01T15:59:18;2.67;;;1.50;;
74371;SDS011;62885;51.374;6.170;2022-09-01T16:01:44;2.35;;;1.42;;
74371;SDS011;62885;51.374;6.170;2022-09-01T16:04:11;3.47;;;1.73;;
74371;SDS011;62885;51.374;6.170;2022-09-01T16:06:41;2.58;;;1.60;;
74371;SDS011;62885;51.374;6.170;2022-09-01T16:09:08;3.90;;;1.38;;
74371;SDS011;62885;51.374;6.170;2022-09-01T16:11:34;1.77;;;1.20;;
74371;SDS011;62885;51.374;6.170;2022-09-01T16:14:03;2.97;;;1.33;;
74371;SDS011;62885;51.374;6.170;2022-09-01T16:24:47;2.55;;;1.48;;
74371;SDS011;62885;51.374;6.170;2022-09-01T16:27:15;4.00;;;1.60;;
74371;SDS011;62885;51.374;6.170;2022-09-01T16:32:12;4.78;;;1.50;;
74371;SDS011;62885;51.374;6.170;2022-09-01T16:34:38;4.55;;;1.70;;
74371;SDS011;62885;51.374;6.170;2022-09-01T16:46:00;3.08;;;1.80;;
74371;SDS011;62885;51.374;6.170;2022-09-01T16:51:14;3.80;;;1.70;;
74371;SDS011;62885;51.374;6.170;2022-09-01T16:54:02;4.18;;;1.60;;
74371;SDS011;62885;51.374;6.170;2022-09-01T17:02:33;3.90;;;1.35;;